Time;durP1;ratioP1;P1;durP2;ratioP2;P2;SDS_P1;SDS_P2;PMS_P1;PMS_P2;Temp;Humidity;BMP_temperature;BMP_pressure;BME280_temperature;BME280_humidity;BME280_pressure;Samples;Min_cycle;Max_cycle;Signal;HPM_P1;HPM_P2
2022/03/28 00:01:11;;;;;;;9.90;5.95;;;7.70;99.90;;;;;;5073425;28;20044;-61
2022/03/28 00:03:37;;;;;;;14.98;6.22;;;7.60;99.90;;;;;;5072051;28;20083;-61
2022/03/28 00:06:04;;;;;;;8.40;5.82;;;7.60;99.90;;;;;;5073516;28;20466;-61
2022/03/28 00:08:30;;;;;;;10.55;5.88;;;7.60;99.90;;;;;;5073439;28;20029;-61
2022/03/28 00:10:56;;;;;;;10.80;5.68;;;7.60;99.90;;;;;;5073310;28;20054;-61
2022/03/28 00:13:22;;;;;;;10.25;5.45;;;7.60;99.90;;;;;;5073302;28;20068;-61
2022/03/28 00:15:48;;;;;;;10.45;5.07;;;7.60;99.90;;;;;;5073316;28;20521;-61
2022/03/28 00:18:14;;;;;;;9.05;5.32;;;7.70;99.90;;;;;;5073040;28;20417;-61
2022/03/28 00:20:40;;;;;;;7.88;5.28;;;7.60;99.90;;;;;;5073258;28;20032;-61
2022/03/28 00:23:06;;;;;;;10.18;5.40;;;7.60;99.90;;;;;;5072956;28;20463;-61
2022/03/28 00:25:32;;;;;;;8.05;4.70;;;7.60;99.90;;;;;;5072984;28;20474;-61
2022/03/28 00:27:58;;;;;;;12.95;6.40;;;7.60;99.90;;;;;;5072940;28;20032;-61
2022/03/28 00:30:23;;;;;;;9.75;5.47;;;7.60;99.90;;;;;;5073109;28;20517;-61
2022/03/28 00:32:49;;;;;;;10.98;4.78;;;7.50;99.90;;;;;;5071738;28;20467;-61
2022/03/28 00:35:15;;;;;;;11.27;5.72;;;7.50;99.90;;;;;;5072627;28;20045;-61
2022/03/28 00:37:41;;;;;;;10.75;5.40;;;7.50;99.90;;;;;;5072819;28;20124;-61
2022/03/28 00:40:11;;;;;;;9.60;5.65;;;7.50;99.90;;;;;;5072837;28;20044;-61
2022/03/28 00:42:37;;;;;;;11.18;6.43;;;7.40;99.90;;;;;;5072814;28;20036;-61
2022/03/28 00:45:05;;;;;;;10.35;5.18;;;7.50;99.90;;;;;;5072703;28;20068;-61
2022/03/28 00:47:31;;;;;;;8.32;5.20;;;7.50;99.90;;;;;;5072802;28;20033;-62
2022/03/28 00:49:57;;;;;;;11.27;5.28;;;7.50;99.90;;;;;;5072618;28;20079;-61
2022/03/28 00:52:24;;;;;;;8.70;4.75;;;7.40;99.90;;;;;;5071430;28;20039;-61
2022/03/28 00:54:50;;;;;;;6.82;4.28;;;7.50;99.90;;;;;;5072473;28;20512;-61
2022/03/28 00:57:17;;;;;;;7.60;4.38;;;7.30;99.90;;;;;;5072162;28;20060;-62
2022/03/28 00:59:43;;;;;;;7.60;4.38;;;7.40;99.90;;;;;;5072358;28;20052;-61
2022/03/28 01:02:09;;;;;;;8.80;4.80;;;7.50;99.90;;;;;;5072193;28;20102;-61
2022/03/28 01:04:37;;;;;;;5.13;3.80;;;7.50;99.90;;;;;;5072456;28;20064;-61
2022/03/28 01:07:05;;;;;;;8.05;5.15;;;7.40;99.90;;;;;;5072494;28;20037;-61
2022/03/28 01:09:31;;;;;;;7.03;4.50;;;7.50;99.90;;;;;;5072033;28;20040;-61
2022/03/28 01:11:58;;;;;;;7.55;4.18;;;7.40;99.90;;;;;;5072148;28;20043;-62
2022/03/28 01:14:26;;;;;;;10.25;4.65;;;7.50;99.90;;;;;;5072093;28;20116;-61
2022/03/28 01:19:36;;;;;;;8.98;4.15;;;7.50;99.90;;;;;;5072006;28;20119;-61
2022/03/28 01:22:01;;;;;;;7.18;4.03;;;7.40;99.90;;;;;;5072062;28;20112;-61
2022/03/28 01:24:27;;;;;;;5.53;4.00;;;7.50;99.90;;;;;;5071957;28;20036;-61
2022/03/28 01:26:55;;;;;;;7.43;5.05;;;7.50;99.90;;;;;;5072004;28;20115;-61
2022/03/28 01:29:20;;;;;;;6.70;4.18;;;7.30;99.90;;;;;;5072195;28;20037;-61
2022/03/28 01:31:46;;;;;;;7.20;4.15;;;7.40;99.90;;;;;;5072010;28;20043;-61
2022/03/28 01:34:19;;;;;;;6.53;4.40;;;7.40;99.90;;;;;;5070931;28;20520;-61
2022/03/28 01:36:47;;;;;;;8.88;4.80;;;7.40;99.90;;;;;;5071776;28;20045;-61
2022/03/28 01:39:13;;;;;;;7.25;4.65;;;7.40;99.90;;;;;;5071658;28;20052;-61
2022/03/28 01:41:40;;;;;;;6.13;4.18;;;7.40;99.90;;;;;;5071752;28;20441;-61
2022/03/28 01:44:06;;;;;;;8.90;5.57;;;7.50;99.90;;;;;;5071883;28;20134;-61
2022/03/28 01:46:45;;;;;;;6.85;4.80;;;7.50;99.90;;;;;;5071052;28;20048;-61
2022/03/28 01:49:15;;;;;;;7.40;5.63;;;7.50;99.90;;;;;;5069951;28;20053;-61
2022/03/28 01:51:41;;;;;;;7.65;5.25;;;7.40;99.90;;;;;;5069750;28;20074;-62
2022/03/28 01:54:07;;;;;;;8.70;5.63;;;7.40;99.90;;;;;;5071519;28;20083;-62
2022/03/28 01:56:35;;;;;;;8.43;4.95;;;7.40;99.90;;;;;;5071501;28;20084;-62
2022/03/28 01:59:05;;;;;;;9.40;4.80;;;7.50;99.90;;;;;;5071685;28;20048;-61
2022/03/28 02:01:31;;;;;;;12.30;6.35;;;7.50;99.90;;;;;;5071557;28;20098;-62
2022/03/28 02:03:57;;;;;;;10.50;6.18;;;7.50;99.90;;;;;;5071493;28;20040;-62
2022/03/28 02:06:23;;;;;;;14.80;6.50;;;7.50;99.90;;;;;;5071547;28;20078;-62
2022/03/28 02:08:49;;;;;;;7.03;5.32;;;7.60;99.90;;;;;;5071372;28;20042;-61
2022/03/28 02:11:15;;;;;;;9.80;6.53;;;7.50;99.90;;;;;;5071618;28;20032;-61
2022/03/28 02:13:41;;;;;;;9.57;6.00;;;7.60;99.90;;;;;;5071646;28;20036;-62
2022/03/28 02:16:07;;;;;;;9.55;5.70;;;7.60;99.90;;;;;;5071567;28;20044;-61
2022/03/28 02:18:33;;;;;;;8.43;6.22;;;7.60;99.90;;;;;;5071778;28;20902;-62
2022/03/28 02:20:58;;;;;;;9.75;6.25;;;7.60;99.90;;;;;;5071541;28;20528;-62
2022/03/28 02:23:24;;;;;;;12.00;6.07;;;7.50;99.90;;;;;;5071614;28;20033;-62
2022/03/28 02:25:50;;;;;;;9.88;6.55;;;7.50;99.90;;;;;;5071501;28;20127;-62
2022/03/28 02:28:16;;;;;;;13.80;6.20;;;7.50;99.90;;;;;;5071208;28;20119;-61
2022/03/28 02:30:42;;;;;;;8.48;6.25;;;7.60;99.90;;;;;;5071273;28;20037;-61
2022/03/28 02:33:09;;;;;;;13.88;6.68;;;7.50;99.90;;;;;;5071453;28;20041;-61
2022/03/28 02:35:35;;;;;;;15.23;6.78;;;7.60;99.90;;;;;;5071274;28;20045;-62
2022/03/28 02:38:01;;;;;;;10.15;6.05;;;7.50;99.90;;;;;;5071183;28;20040;-62
2022/03/28 02:40:31;;;;;;;11.32;6.60;;;7.50;99.90;;;;;;5071156;28;20413;-62
2022/03/28 02:42:58;;;;;;;11.43;7.40;;;7.30;99.90;;;;;;5071333;28;20048;-62
2022/03/28 02:45:25;;;;;;;7.35;6.32;;;7.30;99.90;;;;;;5071214;28;20036;-62
2022/03/28 02:47:50;;;;;;;7.68;6.13;;;7.30;99.90;;;;;;5071284;28;20045;-62
2022/03/28 02:50:16;;;;;;;9.40;5.90;;;7.20;99.90;;;;;;5071009;28;20087;-61
2022/03/28 02:52:42;;;;;;;8.75;5.70;;;7.30;99.90;;;;;;5070972;28;20186;-62
2022/03/28 02:55:08;;;;;;;9.73;5.93;;;7.30;99.90;;;;;;5071288;28;20038;-61
2022/03/28 02:57:34;;;;;;;7.75;5.97;;;7.20;99.90;;;;;;5072485;28;20057;-61
2022/03/28 03:00:00;;;;;;;12.23;7.13;;;7.20;99.90;;;;;;5074905;28;20052;-61
2022/03/28 03:02:26;;;;;;;9.88;7.32;;;7.10;99.90;;;;;;5074838;28;20402;-63
2022/03/28 03:04:51;;;;;;;10.30;7.47;;;7.10;99.90;;;;;;5074457;28;20040;-62
2022/03/28 03:07:18;;;;;;;10.68;7.45;;;7.10;99.90;;;;;;5074768;28;20033;-61
2022/03/28 03:09:44;;;;;;;12.13;7.40;;;7.00;99.90;;;;;;5074612;28;20082;-62
2022/03/28 03:12:09;;;;;;;10.45;6.95;;;7.00;99.90;;;;;;5074363;28;20041;-62
2022/03/28 03:14:35;;;;;;;10.85;7.55;;;7.10;99.90;;;;;;5074402;28;20032;-61
2022/03/28 03:17:02;;;;;;;12.45;7.63;;;7.00;99.90;;;;;;5074398;28;20035;-61
2022/03/28 03:19:28;;;;;;;11.32;8.65;;;7.00;99.90;;;;;;5074532;28;20413;-62
2022/03/28 03:21:54;;;;;;;10.57;7.53;;;7.10;99.90;;;;;;5072744;28;20067;-62
2022/03/28 03:24:20;;;;;;;12.57;8.35;;;7.10;99.90;;;;;;5074379;28;20057;-61
2022/03/28 03:26:45;;;;;;;11.15;7.07;;;6.90;99.90;;;;;;5074224;28;20036;-62
2022/03/28 03:29:11;;;;;;;8.05;6.65;;;6.90;99.90;;;;;;5074189;28;20033;-61
2022/03/28 03:31:39;;;;;;;11.73;6.90;;;6.90;99.90;;;;;;5074209;28;20036;-62
2022/03/28 03:34:05;;;;;;;9.90;6.90;;;6.80;99.90;;;;;;5073920;28;20047;-61
2022/03/28 03:36:31;;;;;;;8.82;7.38;;;6.80;99.90;;;;;;5074317;28;20036;-62
2022/03/28 03:38:57;;;;;;;8.50;6.80;;;6.80;99.90;;;;;;5074059;28;20044;-61
2022/03/28 03:41:22;;;;;;;9.20;6.18;;;6.70;99.90;;;;;;5074209;28;20040;-62
2022/03/28 03:43:48;;;;;;;7.88;6.57;;;6.70;99.90;;;;;;5072523;28;20048;-61
2022/03/28 03:46:13;;;;;;;10.68;6.53;;;6.60;99.90;;;;;;5073804;28;20029;-61
2022/03/28 03:48:39;;;;;;;9.80;6.65;;;6.60;99.90;;;;;;5073732;28;20040;-61
2022/03/28 03:51:05;;;;;;;8.95;7.07;;;6.60;99.90;;;;;;5073933;28;20036;-62
2022/03/28 03:53:31;;;;;;;10.40;6.45;;;6.60;99.90;;;;;;5073779;28;20035;-62
2022/03/28 03:55:56;;;;;;;7.10;5.32;;;6.70;99.90;;;;;;5073604;28;20483;-62
2022/03/28 03:58:22;;;;;;;7.50;5.65;;;6.60;99.90;;;;;;5073403;28;20098;-62
2022/03/28 04:00:47;;;;;;;8.55;6.30;;;6.60;99.90;;;;;;5073459;28;20041;-61
2022/03/28 04:03:13;;;;;;;8.82;6.38;;;6.70;99.90;;;;;;5073602;28;20044;-61
2022/03/28 04:05:39;;;;;;;10.57;6.93;;;6.60;99.90;;;;;;5073676;28;20048;-62
2022/03/28 04:08:07;;;;;;;9.45;6.07;;;6.70;99.90;;;;;;5073634;28;20052;-62
2022/03/28 04:10:34;;;;;;;8.88;6.55;;;6.70;99.90;;;;;;5072873;28;20036;-61
2022/03/28 04:13:00;;;;;;;6.85;5.18;;;6.80;99.90;;;;;;5073481;28;20124;-61
2022/03/28 04:15:27;;;;;;;6.05;4.20;;;6.70;99.90;;;;;;5073475;28;20472;-62
2022/03/28 04:17:52;;;;;;;6.05;4.35;;;6.70;99.90;;;;;;5073447;28;20532;-62
2022/03/28 04:20:19;;;;;;;5.95;4.75;;;6.70;99.90;;;;;;5073476;28;20040;-62
2022/03/28 04:22:48;;;;;;;5.63;4.18;;;6.60;99.90;;;;;;5073178;28;20093;-61
2022/03/28 04:25:14;;;;;;;4.65;3.15;;;6.60;99.90;;;;;;5073466;28;20445;-62
2022/03/28 04:27:41;;;;;;;4.75;3.45;;;6.60;99.90;;;;;;5073193;28;20577;-62
2022/03/28 04:30:09;;;;;;;3.35;2.58;;;6.60;99.90;;;;;;5073127;28;20086;-61
2022/03/28 04:32:36;;;;;;;3.80;2.80;;;6.50;99.90;;;;;;5073462;28;20396;-61
2022/03/28 04:35:03;;;;;;;4.07;3.30;;;6.40;99.90;;;;;;5072989;28;20842;-62
2022/03/28 04:37:33;;;;;;;4.03;3.10;;;6.40;99.90;;;;;;5073052;28;20580;-61
2022/03/28 04:40:00;;;;;;;4.38;3.50;;;6.40;99.90;;;;;;5072883;28;20040;-62
2022/03/28 04:42:25;;;;;;;4.10;3.30;;;6.40;99.90;;;;;;5072587;28;20040;-61
2022/03/28 04:44:51;;;;;;;4.05;3.20;;;6.40;99.90;;;;;;5073094;28;20093;-62
2022/03/28 04:47:17;;;;;;;4.15;2.95;;;6.50;99.90;;;;;;5073036;28;20588;-62
2022/03/28 04:49:42;;;;;;;4.22;3.05;;;6.50;99.90;;;;;;5072985;28;20036;-62
2022/03/28 04:52:08;;;;;;;3.85;2.92;;;6.60;99.90;;;;;;5072870;28;20064;-62
2022/03/28 04:54:36;;;;;;;4.20;3.20;;;6.60;99.90;;;;;;5072568;28;20032;-62
2022/03/28 04:57:05;;;;;;;4.57;3.47;;;6.40;99.90;;;;;;5072255;28;20487;-61
2022/03/28 04:59:31;;;;;;;6.50;3.58;;;6.50;99.90;;;;;;5072576;28;20068;-62
2022/03/28 05:01:58;;;;;;;4.82;3.47;;;6.40;99.90;;;;;;5072769;28;20448;-62
2022/03/28 05:04:24;;;;;;;3.95;3.00;;;6.50;99.90;;;;;;5072151;28;20041;-62
2022/03/28 05:06:49;;;;;;;3.25;2.05;;;6.50;99.90;;;;;;5070980;28;20052;-62
2022/03/28 05:09:15;;;;;;;2.30;1.70;;;6.40;99.90;;;;;;5072289;28;20498;-61
2022/03/28 05:11:42;;;;;;;3.95;2.42;;;6.40;99.90;;;;;;5072380;28;20033;-61
2022/03/28 05:14:08;;;;;;;2.47;2.22;;;6.40;99.90;;;;;;5072131;28;20101;-61
2022/03/28 05:16:35;;;;;;;3.10;2.50;;;6.40;99.90;;;;;;5070935;28;20402;-62
2022/03/28 05:19:00;;;;;;;3.10;2.30;;;6.40;99.90;;;;;;5072399;28;20047;-62
2022/03/28 05:21:26;;;;;;;4.63;3.67;;;6.40;99.90;;;;;;5072227;28;20032;-62
2022/03/28 05:23:51;;;;;;;4.28;3.17;;;6.30;99.90;;;;;;5072001;28;20509;-62
2022/03/28 05:26:17;;;;;;;6.72;5.20;;;6.30;99.90;;;;;;5072020;28;20098;-62
2022/03/28 05:28:43;;;;;;;8.45;6.03;;;6.30;99.90;;;;;;5070612;28;20463;-61
2022/03/28 05:31:08;;;;;;;11.65;7.28;;;6.20;99.90;;;;;;5072188;28;20045;-61
2022/03/28 05:33:34;;;;;;;8.45;6.53;;;6.10;99.90;;;;;;5071910;28;20040;-62
2022/03/28 05:36:00;;;;;;;7.95;6.85;;;6.00;99.90;;;;;;5071958;28;20418;-62
2022/03/28 05:38:26;;;;;;;9.98;7.05;;;6.00;99.90;;;;;;5072011;28;20044;-62
2022/03/28 05:40:51;;;;;;;10.65;6.68;;;6.00;99.90;;;;;;5071804;28;20043;-62
2022/03/28 05:43:17;;;;;;;8.75;7.28;;;6.10;99.90;;;;;;5071845;28;20131;-62
2022/03/28 05:45:43;;;;;;;8.88;6.75;;;6.10;99.90;;;;;;5072106;28;20033;-61
2022/03/28 05:48:09;;;;;;;9.27;7.13;;;6.10;99.90;;;;;;5071858;28;20457;-62
2022/03/28 05:50:35;;;;;;;8.90;6.85;;;6.10;99.90;;;;;;5071891;28;20078;-62
2022/03/28 05:53:00;;;;;;;10.80;7.82;;;6.20;99.90;;;;;;5071795;28;20044;-63
2022/03/28 05:55:26;;;;;;;11.68;7.22;;;6.10;99.90;;;;;;5070614;28;20048;-62
2022/03/28 05:57:52;;;;;;;9.13;6.95;;;6.10;99.90;;;;;;5071502;28;20136;-62
2022/03/28 06:00:20;;;;;;;10.30;7.03;;;6.20;99.90;;;;;;5071781;28;20048;-62
2022/03/28 06:02:46;;;;;;;9.90;7.38;;;6.10;99.90;;;;;;5071699;28;20064;-61
2022/03/28 06:05:12;;;;;;;10.52;7.07;;;6.10;99.90;;;;;;5071572;28;20067;-62
2022/03/28 06:07:39;;;;;;;8.95;7.18;;;6.10;99.90;;;;;;5071730;28;20048;-63
2022/03/28 06:10:05;;;;;;;7.63;6.80;;;6.30;99.90;;;;;;5071343;28;20501;-62
2022/03/28 06:12:31;;;;;;;11.80;8.07;;;6.30;99.90;;;;;;5071402;28;20115;-62
2022/03/28 06:14:56;;;;;;;9.88;7.65;;;6.30;99.90;;;;;;5071633;28;20457;-62
2022/03/28 06:17:23;;;;;;;11.73;8.30;;;6.30;99.90;;;;;;5071740;28;20040;-62
2022/03/28 06:19:49;;;;;;;11.65;8.77;;;6.40;99.90;;;;;;5071624;28;20085;-62
2022/03/28 06:22:15;;;;;;;11.10;8.57;;;6.40;99.90;;;;;;5071451;28;20032;-61
2022/03/28 06:24:41;;;;;;;11.93;8.80;;;6.40;99.90;;;;;;5071472;28;20533;-63
2022/03/28 06:27:07;;;;;;;10.77;8.98;;;6.40;99.90;;;;;;5071361;28;20119;-62
2022/03/28 06:29:33;;;;;;;14.15;8.65;;;6.40;99.90;;;;;;5071664;28;20044;-62
2022/03/28 06:31:59;;;;;;;10.70;8.23;;;6.30;99.90;;;;;;5072093;28;20063;-63
2022/03/28 06:34:24;;;;;;;13.98;9.23;;;6.40;99.90;;;;;;5075384;28;20032;-62
2022/03/28 06:36:50;;;;;;;8.80;7.82;;;6.40;99.90;;;;;;5075443;28;20406;-62
2022/03/28 06:39:16;;;;;;;12.23;7.75;;;6.50;99.90;;;;;;5075344;28;20474;-62
2022/03/28 06:41:42;;;;;;;8.82;7.30;;;6.50;99.90;;;;;;5074894;28;20040;-62
2022/03/28 06:44:11;;;;;;;9.63;7.43;;;6.50;99.90;;;;;;5075081;28;20047;-62
2022/03/28 06:46:38;;;;;;;11.65;10.05;;;6.60;99.90;;;;;;5073975;28;20390;-63
2022/03/28 06:49:04;;;;;;;11.77;9.82;;;6.50;99.90;;;;;;5075067;28;20037;-62
2022/03/28 06:51:29;;;;;;;14.18;8.73;;;6.60;99.90;;;;;;5075018;28;20471;-61
2022/03/28 06:53:55;;;;;;;8.10;7.20;;;6.60;99.90;;;;;;5074792;28;20076;-61
2022/03/28 06:56:21;;;;;;;9.15;7.32;;;6.60;99.90;;;;;;5073183;28;20049;-62
2022/03/28 06:58:46;;;;;;;9.75;7.55;;;6.50;99.90;;;;;;5074657;28;20040;-61
2022/03/28 07:01:12;;;;;;;14.50;8.90;;;6.50;99.90;;;;;;5075026;28;20117;-61
2022/03/28 07:03:38;;;;;;;9.95;7.90;;;6.60;99.90;;;;;;5074949;28;20036;-61
2022/03/28 07:06:04;;;;;;;13.38;8.88;;;6.60;99.90;;;;;;5073744;28;20505;-62
2022/03/28 07:08:30;;;;;;;11.73;9.48;;;6.70;99.90;;;;;;5074154;28;20036;-62
2022/03/28 07:10:58;;;;;;;11.63;9.90;;;6.70;99.90;;;;;;5074506;28;20378;-62
2022/03/28 07:13:23;;;;;;;12.73;8.95;;;6.80;99.90;;;;;;5074714;28;20456;-62
2022/03/28 07:15:49;;;;;;;12.82;9.23;;;6.70;99.90;;;;;;5074465;28;20127;-64
2022/03/28 07:18:15;;;;;;;13.32;9.60;;;6.80;99.90;;;;;;5074546;28;20049;-63
2022/03/28 07:20:43;;;;;;;11.88;9.10;;;6.80;99.90;;;;;;5074407;28;20055;-63
2022/03/28 07:23:10;;;;;;;10.77;9.32;;;6.80;99.90;;;;;;5074497;28;20052;-62
2022/03/28 07:25:36;;;;;;;13.57;10.23;;;6.90;99.90;;;;;;5074503;28;20040;-63
2022/03/28 07:28:10;;;;;;;11.73;10.50;;;6.90;99.90;;;;;;5074539;28;20440;-62
2022/03/28 07:30:36;;;;;;;17.17;12.20;;;6.90;99.90;;;;;;5074245;28;20036;-63
2022/03/28 07:33:04;;;;;;;18.15;13.70;;;6.90;99.90;;;;;;5074182;28;20087;-63
2022/03/28 07:35:32;;;;;;;19.38;14.48;;;6.90;99.90;;;;;;5074137;28;20106;-62
2022/03/28 07:37:58;;;;;;;21.88;15.32;;;7.00;99.90;;;;;;5074120;28;20479;-62
2022/03/28 07:40:25;;;;;;;18.30;14.23;;;7.00;99.90;;;;;;5074078;28;20036;-64
2022/03/28 07:42:53;;;;;;;24.02;16.65;;;7.10;99.90;;;;;;5073833;28;20391;-63
2022/03/28 07:45:19;;;;;;;25.17;17.75;;;7.10;99.90;;;;;;5072987;28;20043;-62
2022/03/28 07:47:45;;;;;;;24.50;17.63;;;7.20;99.90;;;;;;5073844;28;20051;-63
2022/03/28 07:50:12;;;;;;;26.70;17.50;;;7.10;99.90;;;;;;5073644;28;20033;-62
2022/03/28 07:52:38;;;;;;;23.25;16.10;;;7.10;99.90;;;;;;5073998;28;20037;-62
2022/03/28 07:55:05;;;;;;;16.90;12.13;;;7.10;99.90;;;;;;5074000;28;20430;-63
2022/03/28 07:57:31;;;;;;;13.77;11.07;;;7.20;99.90;;;;;;5073684;28;20101;-62
2022/03/28 07:59:58;;;;;;;17.98;12.13;;;7.30;99.90;;;;;;5073632;28;20064;-63
2022/03/28 08:02:24;;;;;;;22.00;15.35;;;7.30;99.90;;;;;;5073515;28;20068;-63
2022/03/28 08:04:50;;;;;;;21.40;16.75;;;7.30;99.90;;;;;;5073484;28;20116;-63
2022/03/28 08:07:16;;;;;;;21.50;17.13;;;7.30;99.90;;;;;;5073393;28;20119;-62
2022/03/28 08:09:42;;;;;;;20.17;16.33;;;7.30;99.90;;;;;;5073382;28;20041;-62
2022/03/28 08:12:09;;;;;;;21.65;15.38;;;7.40;99.90;;;;;;5073706;28;20047;-62
2022/03/28 08:14:36;;;;;;;24.35;18.10;;;7.50;99.90;;;;;;5073420;28;20032;-62
2022/03/28 08:17:03;;;;;;;25.88;20.50;;;7.60;99.90;;;;;;5073329;28;20082;-62
2022/03/28 08:19:28;;;;;;;27.63;20.83;;;7.60;99.90;;;;;;5073462;28;20040;-62
2022/03/28 08:21:54;;;;;;;27.60;21.33;;;7.60;99.90;;;;;;5073158;28;20432;-62
2022/03/28 08:24:21;;;;;;;27.15;20.38;;;7.60;99.90;;;;;;5071899;28;20534;-62
2022/03/28 08:26:47;;;;;;;26.30;20.50;;;7.60;99.90;;;;;;5072946;28;20064;-62
2022/03/28 08:29:13;;;;;;;26.85;19.60;;;7.70;99.90;;;;;;5072996;28;20072;-62
2022/03/28 08:31:39;;;;;;;27.92;19.88;;;7.80;99.90;;;;;;5073152;28;20703;-62
2022/03/28 08:34:05;;;;;;;27.45;19.23;;;7.80;99.90;;;;;;5072943;28;20501;-63
2022/03/28 08:36:31;;;;;;;23.20;17.27;;;7.90;99.90;;;;;;5073139;28;20045;-62
2022/03/28 08:38:56;;;;;;;20.80;15.60;;;7.90;99.90;;;;;;5072938;28;20510;-63
2022/03/28 08:41:26;;;;;;;19.10;16.10;;;7.90;99.90;;;;;;5072929;28;20121;-62
2022/03/28 08:43:51;;;;;;;16.75;14.10;;;7.90;99.90;;;;;;5072605;28;20482;-62
2022/03/28 08:46:18;;;;;;;13.82;11.32;;;8.00;99.90;;;;;;5071296;28;20050;-63
2022/03/28 08:48:44;;;;;;;14.85;12.10;;;8.00;99.90;;;;;;5072651;28;20082;-62
2022/03/28 08:51:13;;;;;;;14.82;11.55;;;8.00;99.90;;;;;;5072813;28;20040;-62
2022/03/28 08:53:39;;;;;;;17.27;12.15;;;7.90;99.90;;;;;;5088207;28;20430;-62
2022/03/28 08:56:05;;;;;;;13.82;12.23;;;7.80;99.90;;;;;;5072196;28;20036;-62
2022/03/28 08:58:31;;;;;;;15.40;12.30;;;7.90;99.90;;;;;;5072140;28;20483;-62
2022/03/28 09:00:57;;;;;;;17.40;12.63;;;8.10;99.90;;;;;;5072395;28;20165;-61
2022/03/28 09:03:39;;;;;;;18.42;12.55;;;8.10;99.90;;;;;;5072321;28;20048;-62
2022/03/28 09:06:36;;;;;;;16.38;13.43;;;8.10;99.90;;;;;;5070886;28;20047;-62
2022/03/28 09:09:16;;;;;;;14.32;12.68;;;8.10;99.90;;;;;;5072576;28;20137;-62
2022/03/28 09:11:43;;;;;;;21.38;13.68;;;8.20;99.90;;;;;;5072280;28;20040;-62
2022/03/28 09:14:34;;;;;;;15.30;12.20;;;8.30;99.90;;;;;;5072409;28;20043;-62
2022/03/28 09:17:05;;;;;;;17.58;13.93;;;8.30;99.90;;;;;;5072222;28;20583;-62
2022/03/28 09:19:53;;;;;;;22.77;13.90;;;8.30;99.90;;;;;;5072307;28;20048;-61
2022/03/28 09:22:24;;;;;;;18.00;13.20;;;8.40;99.90;;;;;;5072302;28;20040;-62
2022/03/28 09:24:52;;;;;;;16.25;13.18;;;8.30;99.90;;;;;;5072407;28;20048;-62
2022/03/28 09:27:20;;;;;;;15.10;13.45;;;8.40;99.90;;;;;;5072313;28;20452;-62
2022/03/28 09:30:08;;;;;;;17.35;13.02;;;8.60;99.90;;;;;;5072146;28;20056;-62
2022/03/28 09:32:39;;;;;;;16.80;12.95;;;8.70;99.90;;;;;;5071834;28;20512;-62
2022/03/28 09:35:24;;;;;;;18.42;13.88;;;8.80;99.90;;;;;;5072102;28;20078;-62
2022/03/28 09:37:56;;;;;;;14.10;12.60;;;8.70;99.90;;;;;;5071797;28;20161;-62
2022/03/28 09:40:27;;;;;;;15.70;12.88;;;8.80;99.90;;;;;;5071770;28;20050;-62
2022/03/28 09:42:54;;;;;;;15.02;13.05;;;8.90;99.90;;;;;;5071625;28;20041;-61
2022/03/28 09:45:26;;;;;;;17.58;13.77;;;8.90;99.90;;;;;;5071964;28;20033;-62
2022/03/28 09:48:02;;;;;;;15.13;12.55;;;8.80;99.90;;;;;;5072063;28;20082;-61
2022/03/28 09:51:09;;;;;;;16.83;12.45;;;8.90;99.90;;;;;;5071544;28;20040;-62
2022/03/28 09:53:39;;;;;;;16.13;13.07;;;8.90;99.90;;;;;;5071818;28;20050;-62
2022/03/28 09:56:10;;;;;;;19.20;13.23;;;9.10;99.90;;;;;;5071659;28;20041;-62
2022/03/28 09:59:01;;;;;;;17.42;13.20;;;9.00;99.90;;;;;;5087164;28;20060;-62
2022/03/28 10:01:31;;;;;;;15.30;12.23;;;9.10;99.90;;;;;;5071579;28;20136;-63
2022/03/28 10:04:05;;;;;;;19.90;14.68;;;9.20;99.90;;;;;;5087123;28;20558;-61
2022/03/28 10:06:32;;;;;;;19.15;15.50;;;9.00;99.90;;;;;;5071637;28;20070;-62
2022/03/28 10:08:58;;;;;;;17.58;14.18;;;9.20;99.90;;;;;;5075654;28;20043;-60
2022/03/28 10:11:25;;;;;;;16.40;13.93;;;9.30;99.90;;;;;;5075905;28;20047;-60
2022/03/28 10:13:51;;;;;;;20.85;14.35;;;9.40;99.90;;;;;;5075599;28;20434;-60
2022/03/28 10:16:18;;;;;;;16.60;13.85;;;9.30;99.90;;;;;;5075868;28;20055;-60
2022/03/28 10:18:46;;;;;;;18.33;14.25;;;9.50;99.90;;;;;;5076094;28;20037;-60
2022/03/28 10:21:22;;;;;;;15.93;13.80;;;9.40;99.90;;;;;;5075838;28;20496;-60
2022/03/28 10:24:12;;;;;;;16.33;13.43;;;9.50;99.90;;;;;;5075796;28;20041;-61
2022/03/28 10:26:40;;;;;;;16.77;13.05;;;9.60;99.90;;;;;;5075666;28;20483;-61
2022/03/28 10:29:15;;;;;;;18.45;13.60;;;9.70;99.90;;;;;;5074990;28;20042;-61
2022/03/28 10:31:55;;;;;;;16.58;13.43;;;9.70;99.90;;;;;;5075619;28;20393;-61
2022/03/28 10:34:52;;;;;;;15.63;13.90;;;9.80;99.90;;;;;;5075047;28;20494;-61
2022/03/28 10:37:36;;;;;;;18.75;14.27;;;9.80;99.90;;;;;;5013325;28;20062;-61
2022/03/28 10:40:29;;;;;;;18.30;14.07;;;10.00;99.90;;;;;;5013178;28;20049;-61
2022/03/28 10:43:03;;;;;;;19.92;14.45;;;10.20;99.90;;;;;;5010523;28;20135;-61
2022/03/28 10:45:58;;;;;;;17.52;14.63;;;10.00;99.90;;;;;;5012975;28;20472;-61
2022/03/28 10:48:44;;;;;;;17.75;15.32;;;10.20;99.90;;;;;;4954548;28;20051;-61
2022/03/28 10:51:11;;;;;;;18.70;14.30;;;10.40;99.90;;;;;;4954341;29;20494;-61
2022/03/28 10:53:43;;;;;;;20.60;13.30;;;10.50;99.90;;;;;;4954499;28;20449;-62
2022/03/28 10:56:17;;;;;;;17.92;13.70;;;10.60;99.90;;;;;;4954521;29;20081;-61
2022/03/28 10:58:58;;;;;;;17.00;14.15;;;10.70;99.90;;;;;;4954470;28;20433;-61
2022/03/28 11:01:41;;;;;;;15.70;13.93;;;10.60;99.90;;;;;;4954368;29;20055;-61
2022/03/28 11:04:14;;;;;;;14.27;12.57;;;10.70;99.90;;;;;;4954196;29;20521;-61
2022/03/28 11:06:59;;;;;;;18.98;13.07;;;10.90;99.90;;;;;;4954369;29;20610;-61
2022/03/28 11:09:51;;;;;;;17.48;14.18;;;10.60;99.90;;;;;;4954129;28;20135;-61
2022/03/28 11:12:19;;;;;;;17.25;13.77;;;10.70;99.90;;;;;;4954435;29;20674;-61
2022/03/28 11:14:51;;;;;;;16.88;13.15;;;10.70;99.90;;;;;;4982332;28;20093;-61
2022/03/28 11:17:26;;;;;;;15.85;13.73;;;10.70;99.90;;;;;;4976576;28;20485;-61
2022/03/28 11:19:53;;;;;;;15.35;12.93;;;10.80;99.90;;;;;;4976234;28;20541;-61
2022/03/28 11:22:36;;;;;;;14.85;12.93;;;11.10;99.90;;;;;;4992747;28;20050;-61
2022/03/28 11:25:02;;;;;;;15.18;13.30;;;11.20;99.90;;;;;;5021306;28;20106;-61
2022/03/28 11:27:33;;;;;;;16.45;12.93;;;11.20;99.90;;;;;;5074394;28;20445;-61
2022/03/28 11:30:02;;;;;;;17.05;12.40;;;11.20;99.90;;;;;;5074347;28;20455;-61
2022/03/28 11:32:31;;;;;;;;;;;11.40;99.90;;;;;;5074430;28;20059;-61
2022/03/28 11:34:57;;;;;;;13.30;11.95;;;11.40;99.90;;;;;;5074145;28;19916;-61
2022/03/28 11:37:28;;;;;;;17.75;11.90;;;11.50;99.90;;;;;;5074003;28;20043;-61
2022/03/28 11:40:01;;;;;;;17.70;12.40;;;11.50;99.90;;;;;;5074082;28;20075;-61
2022/03/28 11:42:30;;;;;;;14.73;13.20;;;11.60;99.90;;;;;;5074161;28;20115;-61
2022/03/28 11:44:57;;;;;;;12.98;11.55;;;11.70;99.90;;;;;;5073983;28;20090;-60
2022/03/28 11:47:23;;;;;;;21.67;12.63;;;11.80;99.90;;;;;;5073932;28;20033;-61
2022/03/28 11:49:52;;;;;;;21.90;13.07;;;11.90;99.90;;;;;;5073695;28;20123;-61
2022/03/28 11:52:21;;;;;;;;;;;12.20;99.90;;;;;;5074375;28;20098;-61
2022/03/28 11:54:47;;;;;;;14.18;11.35;;;12.50;99.90;;;;;;5073907;28;19923;-61
2022/03/28 12:00:31;;;;;;;16.05;12.50;;;13.40;99.90;;;;;;5011752;28;20073;-61
2022/03/28 12:02:58;;;;;;;12.55;10.90;;;13.80;99.90;;;;;;5011519;28;20153;-61
2022/03/28 12:05:31;;;;;;;30.35;14.50;;;13.90;99.90;;;;;;5011615;28;20053;-61
2022/03/28 12:07:59;;;;;;;15.13;11.93;;;13.90;99.90;;;;;;5011736;28;20046;-61
2022/03/28 12:10:32;;;;;;;19.20;11.82;;;13.80;99.90;;;;;;5011585;28;20037;-61
2022/03/28 12:12:59;;;;;;;15.27;11.65;;;13.80;99.90;;;;;;5011283;28;20053;-61
2022/03/28 12:15:27;;;;;;;14.60;11.80;;;13.70;99.90;;;;;;5011409;28;20064;-61
2022/03/28 12:17:54;;;;;;;14.10;11.00;;;13.60;99.90;;;;;;5011178;28;20096;-61
2022/03/28 12:20:23;;;;;;;13.50;12.10;;;13.60;99.90;;;;;;5011156;28;20057;-61
2022/03/28 12:22:49;;;;;;;14.63;12.32;;;13.70;99.90;;;;;;5011099;28;20065;-61
2022/03/28 12:25:28;;;;;;;15.15;11.15;;;13.90;99.90;;;;;;5011150;28;20484;-60
2022/03/28 12:27:56;;;;;;;17.50;11.40;;;14.30;99.90;;;;;;5011577;28;20049;-61
2022/03/28 12:30:28;;;;;;;17.77;11.67;;;14.20;99.90;;;;;;5018508;28;20046;-61
2022/03/28 12:32:55;;;;;;;23.90;11.85;;;14.00;99.90;;;;;;5072975;28;20271;-61
2022/03/28 12:35:21;;;;;;;11.60;10.50;;;13.60;99.90;;;;;;5072799;28;20056;-61
2022/03/28 12:37:59;;;;;;;17.88;10.75;;;13.70;99.90;;;;;;5072814;28;20036;-60
2022/03/28 12:40:29;;;;;;;13.13;11.07;;;14.10;99.90;;;;;;5073021;28;20049;-60
2022/03/28 12:42:55;;;;;;;11.77;10.50;;;14.30;99.90;;;;;;5073059;28;20375;-61
2022/03/28 12:45:29;;;;;;;18.02;10.88;;;14.60;99.90;;;;;;5071260;28;20040;-61
2022/03/28 12:48:03;;;;;;;17.08;10.25;;;15.00;99.90;;;;;;5072579;28;20044;-61
2022/03/28 12:50:32;;;;;;;13.02;10.38;;;15.20;99.90;;;;;;5072535;28;20075;-62
2022/03/28 12:53:09;;;;;;;13.32;10.02;;;15.00;99.90;;;;;;5072753;28;20072;-61
2022/03/28 12:55:34;;;;;;;11.43;9.18;;;15.00;99.90;;;;;;5072568;28;20036;-61
2022/03/28 12:58:01;;;;;;;11.38;9.40;;;14.90;99.90;;;;;;5072400;28;20109;-61